Terminal Aerodrome Forecast
Issued by NWS

Home | Current Version | Previous Version | Text Only | Print | Product List | Glossary On
Versions: 1 2 3 4 5 6 7 8 9 10 11 12 13 14
000
FTUS41 KPBZ 022320
TAFBVI
TAF
KBVI 022320Z 0300/0324 27003KT P6SM FEW060
     FM030900 00000KT 4SM BR SKC
     FM031400 VRB03KT P6SM SCT040=

USA.gov is the U.S. government's official web portal to all federal, state and local government web resources and services.